sensor_id;sensor_type;location;lat;lon;timestamp;pressure;altitude;pressure_sealevel;temperature;humidity
75008;BME280;63554;48.940;12.050;2023-08-17T00:02:18;97479.38;;;19.73;100.00
75008;BME280;63554;48.940;12.050;2023-08-17T00:06:21;97487.63;;;19.78;100.00
75008;BME280;63554;48.940;12.050;2023-08-17T00:10:24;97487.06;;;19.81;100.00
75008;BME280;63554;48.940;12.050;2023-08-17T00:14:28;97496.13;;;19.82;100.00
75008;BME280;63554;48.940;12.050;2023-08-17T00:18:32;97499.16;;;19.75;100.00
75008;BME280;63554;48.940;12.050;2023-08-17T00:22:34;97499.16;;;19.75;100.00
75008;BME280;63554;48.940;12.050;2023-08-17T00:26:37;97487.34;;;19.74;100.00
75008;BME280;63554;48.940;12.050;2023-08-17T00:30:41;97486.53;;;19.74;100.00
75008;BME280;63554;48.940;12.050;2023-08-17T00:34:44;97488.72;;;19.77;100.00
75008;BME280;63554;48.940;12.050;2023-08-17T00:38:47;97480.47;;;19.77;100.00
75008;BME280;63554;48.940;12.050;2023-08-17T00:42:50;97473.34;;;19.76;100.00
75008;BME280;63554;48.940;12.050;2023-08-17T00:46:54;97481.31;;;19.72;100.00
75008;BME280;63554;48.940;12.050;2023-08-17T00:50:58;97479.06;;;19.69;100.00
75008;BME280;63554;48.940;12.050;2023-08-17T00:55:02;97470.84;;;19.64;100.00
75008;BME280;63554;48.940;12.050;2023-08-17T00:59:05;97469.19;;;19.58;100.00
75008;BME280;63554;48.940;12.050;2023-08-17T01:03:10;97463.97;;;19.62;100.00
75008;BME280;63554;48.940;12.050;2023-08-17T01:07:12;97468.09;;;19.64;100.00
75008;BME280;63554;48.940;12.050;2023-08-17T01:11:22;97481.56;;;19.61;100.00
75008;BME280;63554;48.940;12.050;2023-08-17T01:15:34;97480.44;;;19.62;100.00
75008;BME280;63554;48.940;12.050;2023-08-17T01:19:38;97474.94;;;19.62;100.00
75008;BME280;63554;48.940;12.050;2023-08-17T01:23:45;97462.03;;;19.67;100.00
75008;BME280;63554;48.940;12.050;2023-08-17T01:27:48;97465.91;;;19.71;100.00
75008;BME280;63554;48.940;12.050;2023-08-17T01:31:54;97467.81;;;19.71;100.00
75008;BME280;63554;48.940;12.050;2023-08-17T01:36:05;97466.19;;;19.75;100.00
75008;BME280;63554;48.940;12.050;2023-08-17T01:40:12;97455.47;;;19.73;100.00
75008;BME280;63554;48.940;12.050;2023-08-17T01:44:16;97467.81;;;19.71;100.00
75008;BME280;63554;48.940;12.050;2023-08-17T01:48:18;97478.78;;;19.66;100.00
75008;BME280;63554;48.940;12.050;2023-08-17T01:52:21;97478.81;;;19.50;100.00
75008;BME280;63554;48.940;12.050;2023-08-17T01:56:26;97486.75;;;19.36;100.00
75008;BME280;63554;48.940;12.050;2023-08-17T02:00:28;97480.47;;;19.31;100.00
75008;BME280;63554;48.940;12.050;2023-08-17T02:04:31;97476.03;;;19.20;100.00
75008;BME280;63554;48.940;12.050;2023-08-17T02:08:34;97473.28;;;19.14;100.00
75008;BME280;63554;48.940;12.050;2023-08-17T02:12:38;97462.31;;;19.14;100.00
75008;BME280;63554;48.940;12.050;2023-08-17T02:16:40;97463.69;;;19.17;100.00
75008;BME280;63554;48.940;12.050;2023-08-17T02:20:43;97464.53;;;19.17;100.00
75008;BME280;63554;48.940;12.050;2023-08-17T02:24:47;97465.59;;;19.16;100.00
75008;BME280;63554;48.940;12.050;2023-08-17T02:28:51;97473.53;;;19.13;100.00
75008;BME280;63554;48.940;12.050;2023-08-17T02:32:54;97469.44;;;19.05;100.00
75008;BME280;63554;48.940;12.050;2023-08-17T02:36:57;97467.22;;;18.97;100.00
75008;BME280;63554;48.940;12.050;2023-08-17T02:41:00;97462.00;;;18.90;100.00
75008;BME280;63554;48.940;12.050;2023-08-17T02:45:05;97461.97;;;18.85;100.00
75008;BME280;63554;48.940;12.050;2023-08-17T02:49:07;97460.28;;;18.74;100.00
75008;BME280;63554;48.940;12.050;2023-08-17T02:53:24;97463.53;;;18.66;100.00
75008;BME280;63554;48.940;12.050;2023-08-17T02:57:29;97459.72;;;18.67;100.00
75008;BME280;63554;48.940;12.050;2023-08-17T03:01:33;97465.75;;;18.69;100.00
75008;BME280;63554;48.940;12.050;2023-08-17T03:06:20;97464.91;;;18.63;100.00
75008;BME280;63554;48.940;12.050;2023-08-17T03:10:43;97464.88;;;18.58;100.00
75008;BME280;63554;48.940;12.050;2023-08-17T03:20:25;97459.94;;;18.55;100.00
75008;BME280;63554;48.940;12.050;2023-08-17T03:24:28;97462.94;;;18.53;100.00
75008;BME280;63554;48.940;12.050;2023-08-17T03:28:31;97467.59;;;18.48;100.00
75008;BME280;63554;48.940;12.050;2023-08-17T03:32:35;97464.84;;;18.43;100.00
75008;BME280;63554;48.940;12.050;2023-08-17T03:36:40;97456.59;;;18.37;100.00
75008;BME280;63554;48.940;12.050;2023-08-17T03:40:44;97466.72;;;18.37;100.00
75008;BME280;63554;48.940;12.050;2023-08-17T03:44:47;97467.25;;;18.34;100.00
75008;BME280;63554;48.940;12.050;2023-08-17T03:48:51;97472.44;;;18.25;100.00
75008;BME280;63554;48.940;12.050;2023-08-17T03:52:55;97474.06;;;18.21;100.00
75008;BME280;63554;48.940;12.050;2023-08-17T03:57:00;97466.63;;;18.16;100.00
75008;BME280;63554;48.940;12.050;2023-08-17T04:01:03;97478.41;;;18.17;100.00
75008;BME280;63554;48.940;12.050;2023-08-17T04:05:10;97480.06;;;18.18;100.00
75008;BME280;63554;48.940;12.050;2023-08-17T04:09:15;97486.63;;;18.17;100.00
75008;BME280;63554;48.940;12.050;2023-08-17T04:13:19;97485.28;;;18.20;100.00
75008;BME280;63554;48.940;12.050;2023-08-17T04:17:21;97469.91;;;18.18;100.00
75008;BME280;63554;48.940;12.050;2023-08-17T04:21:27;97486.06;;;18.15;100.00
75008;BME280;63554;48.940;12.050;2023-08-17T04:25:32;97488.56;;;18.22;100.00
75008;BME280;63554;48.940;12.050;2023-08-17T04:29:35;97485.66;;;18.38;100.00
75008;BME280;63554;48.940;12.050;2023-08-17T04:33:39;97487.03;;;18.41;100.00
75008;BME280;63554;48.940;12.050;2023-08-17T04:37:42;97504.28;;;18.42;100.00
75008;BME280;63554;48.940;12.050;2023-08-17T04:41:46;97506.97;;;18.31;100.00
75008;BME280;63554;48.940;12.050;2023-08-17T04:45:49;97502.88;;;18.34;100.00
75008;BME280;63554;48.940;12.050;2023-08-17T04:49:52;97513.56;;;18.35;100.00
75008;BME280;63554;48.940;12.050;2023-08-17T04:53:54;97505.94;;;18.43;100.00
75008;BME280;63554;48.940;12.050;2023-08-17T04:57:59;97507.88;;;18.47;100.00
75008;BME280;63554;48.940;12.050;2023-08-17T05:02:03;97510.91;;;18.51;100.00
75008;BME280;63554;48.940;12.050;2023-08-17T05:06:05;97509.88;;;18.62;100.00
75008;BME280;63554;48.940;12.050;2023-08-17T05:10:09;97511.22;;;18.60;100.00
75008;BME280;63554;48.940;12.050;2023-08-17T05:14:13;97513.69;;;18.61;100.00
75008;BME280;63554;48.940;12.050;2023-08-17T05:18:18;97509.81;;;18.52;100.00
75008;BME280;63554;48.940;12.050;2023-08-17T05:22:20;97504.97;;;18.74;100.00
75008;BME280;63554;48.940;12.050;2023-08-17T05:26:23;97512.72;;;18.93;100.00
75008;BME280;63554;48.940;12.050;2023-08-17T05:30:28;97515.22;;;19.05;100.00
75008;BME280;63554;48.940;12.050;2023-08-17T05:34:30;97520.75;;;19.10;100.00
75008;BME280;63554;48.940;12.050;2023-08-17T05:38:34;97510.31;;;19.07;100.00
75008;BME280;63554;48.940;12.050;2023-08-17T05:42:37;97509.19;;;18.98;100.00
75008;BME280;63554;48.940;12.050;2023-08-17T05:46:41;97509.47;;;18.96;100.00
75008;BME280;63554;48.940;12.050;2023-08-17T05:50:44;97504.81;;;19.02;100.00
75008;BME280;63554;48.940;12.050;2023-08-17T05:54:47;97515.81;;;19.12;100.00
75008;BME280;63554;48.940;12.050;2023-08-17T05:58:49;97511.16;;;19.17;100.00
75008;BME280;63554;48.940;12.050;2023-08-17T06:02:53;97522.97;;;19.28;100.00
75008;BME280;63554;48.940;12.050;2023-08-17T06:07:02;97529.03;;;19.41;100.00
75008;BME280;63554;48.940;12.050;2023-08-17T06:11:05;97533.44;;;19.57;100.00
75008;BME280;63554;48.940;12.050;2023-08-17T06:15:08;97527.41;;;19.70;100.00
75008;BME280;63554;48.940;12.050;2023-08-17T06:19:13;97519.19;;;19.91;100.00
75008;BME280;63554;48.940;12.050;2023-08-17T06:23:16;97514.50;;;20.07;98.62
75008;BME280;63554;48.940;12.050;2023-08-17T06:27:18;97519.41;;;20.25;97.56
75008;BME280;63554;48.940;12.050;2023-08-17T06:31:22;97514.13;;;20.44;94.56
75008;BME280;63554;48.940;12.050;2023-08-17T06:35:30;97514.94;;;20.60;90.21
75008;BME280;63554;48.940;12.050;2023-08-17T06:39:32;97528.06;;;20.79;89.97
75008;BME280;63554;48.940;12.050;2023-08-17T06:43:35;97516.19;;;20.93;88.30
75008;BME280;63554;48.940;12.050;2023-08-17T06:47:38;97521.31;;;21.10;87.64
75008;BME280;63554;48.940;12.050;2023-08-17T06:51:42;97527.53;;;21.26;87.57
75008;BME280;63554;48.940;12.050;2023-08-17T06:55:45;97515.97;;;21.29;85.77
75008;BME280;63554;48.940;12.050;2023-08-17T06:59:47;97518.94;;;21.38;85.61
75008;BME280;63554;48.940;12.050;2023-08-17T07:03:50;97516.38;;;21.52;85.58
75008;BME280;63554;48.940;12.050;2023-08-17T07:07:54;97531.19;;;21.61;83.57
75008;BME280;63554;48.940;12.050;2023-08-17T07:11:58;97531.41;;;21.70;85.38
75008;BME280;63554;48.940;12.050;2023-08-17T07:16:01;97540.41;;;21.81;83.58
75008;BME280;63554;48.940;12.050;2023-08-17T07:20:05;97545.53;;;21.92;83.07
75008;BME280;63554;48.940;12.050;2023-08-17T07:24:19;97540.69;;;22.14;82.69
75008;BME280;63554;48.940;12.050;2023-08-17T07:28:22;97540.81;;;22.33;82.63
75008;BME280;63554;48.940;12.050;2023-08-17T07:32:25;97543.84;;;22.55;81.27
75008;BME280;63554;48.940;12.050;2023-08-17T07:36:28;97546.94;;;22.78;79.64
75008;BME280;63554;48.940;12.050;2023-08-17T07:40:32;97559.69;;;22.93;77.57
75008;BME280;63554;48.940;12.050;2023-08-17T07:44:35;97562.06;;;23.04;76.63
75008;BME280;63554;48.940;12.050;2023-08-17T07:48:37;97556.34;;;23.20;75.84
75008;BME280;63554;48.940;12.050;2023-08-17T07:52:40;97548.06;;;23.20;76.48
75008;BME280;63554;48.940;12.050;2023-08-17T07:56:44;97544.19;;;23.40;77.90
75008;BME280;63554;48.940;12.050;2023-08-17T08:00:47;97547.47;;;23.61;76.15
75008;BME280;63554;48.940;12.050;2023-08-17T08:04:49;97540.31;;;23.79;74.89
75008;BME280;63554;48.940;12.050;2023-08-17T08:08:52;97548.94;;;23.91;73.51
75008;BME280;63554;48.940;12.050;2023-08-17T08:12:56;97543.63;;;23.95;72.54
75008;BME280;63554;48.940;12.050;2023-08-17T08:16:59;97534.69;;;24.17;73.06
75008;BME280;63554;48.940;12.050;2023-08-17T08:21:02;97530.31;;;24.30;71.85
75008;BME280;63554;48.940;12.050;2023-08-17T08:25:05;97532.50;;;24.46;70.84
75008;BME280;63554;48.940;12.050;2023-08-17T08:29:09;97533.44;;;24.56;71.40
75008;BME280;63554;48.940;12.050;2023-08-17T08:33:13;97540.13;;;24.69;69.86
75008;BME280;63554;48.940;12.050;2023-08-17T08:37:16;97536.22;;;24.83;71.60
75008;BME280;63554;48.940;12.050;2023-08-17T08:41:19;97532.53;;;25.02;71.33
75008;BME280;63554;48.940;12.050;2023-08-17T08:45:23;97539.16;;;25.15;69.12
75008;BME280;63554;48.940;12.050;2023-08-17T08:49:27;97539.88;;;25.34;70.41
75008;BME280;63554;48.940;12.050;2023-08-17T08:53:32;97529.38;;;25.45;67.20
75008;BME280;63554;48.940;12.050;2023-08-17T08:57:39;97528.13;;;25.51;66.41
75008;BME280;63554;48.940;12.050;2023-08-17T09:01:43;97524.59;;;25.59;66.90
75008;BME280;63554;48.940;12.050;2023-08-17T09:05:47;97528.47;;;25.72;64.15
75008;BME280;63554;48.940;12.050;2023-08-17T09:09:51;97522.16;;;25.80;65.40
75008;BME280;63554;48.940;12.050;2023-08-17T09:13:54;97526.22;;;25.97;63.70
75008;BME280;63554;48.940;12.050;2023-08-17T09:17:59;97521.75;;;26.10;64.44
75008;BME280;63554;48.940;12.050;2023-08-17T09:22:02;97518.97;;;26.10;63.62
75008;BME280;63554;48.940;12.050;2023-08-17T09:26:08;97511.06;;;26.26;63.56
75008;BME280;63554;48.940;12.050;2023-08-17T09:30:12;97508.72;;;26.50;60.73
75008;BME280;63554;48.940;12.050;2023-08-17T09:34:20;97516.91;;;26.55;62.45
75008;BME280;63554;48.940;12.050;2023-08-17T09:38:24;97505.88;;;26.64;61.82
75008;BME280;63554;48.940;12.050;2023-08-17T09:42:27;97499.34;;;26.69;60.06
75008;BME280;63554;48.940;12.050;2023-08-17T09:46:29;97498.44;;;26.91;60.39
75008;BME280;63554;48.940;12.050;2023-08-17T09:50:34;97499.28;;;27.09;61.60
75008;BME280;63554;48.940;12.050;2023-08-17T09:54:39;97496.69;;;27.21;60.20
75008;BME280;63554;48.940;12.050;2023-08-17T09:58:42;97491.66;;;27.32;61.26
75008;BME280;63554;48.940;12.050;2023-08-17T10:02:49;97488.91;;;27.40;58.74
75008;BME280;63554;48.940;12.050;2023-08-17T10:06:59;97490.19;;;27.43;59.35
75008;BME280;63554;48.940;12.050;2023-08-17T10:11:04;97487.41;;;27.60;58.84
75008;BME280;63554;48.940;12.050;2023-08-17T10:15:11;97491.66;;;27.75;57.35
75008;BME280;63554;48.940;12.050;2023-08-17T10:19:25;97483.50;;;27.88;57.55
75008;BME280;63554;48.940;12.050;2023-08-17T10:23:34;97484.28;;;28.06;58.05
75008;BME280;63554;48.940;12.050;2023-08-17T10:27:43;97485.69;;;28.20;55.83
75008;BME280;63554;48.940;12.050;2023-08-17T10:31:46;97479.94;;;28.26;53.78
75008;BME280;63554;48.940;12.050;2023-08-17T10:35:51;97480.41;;;28.36;56.35
75008;BME280;63554;48.940;12.050;2023-08-17T10:39:56;97477.53;;;28.63;54.51
75008;BME280;63554;48.940;12.050;2023-08-17T10:43:59;97478.66;;;28.70;52.31
75008;BME280;63554;48.940;12.050;2023-08-17T10:48:25;97477.47;;;28.80;52.41
75008;BME280;63554;48.940;12.050;2023-08-17T10:52:30;97477.50;;;29.01;50.09
75008;BME280;63554;48.940;12.050;2023-08-17T10:56:34;97470.47;;;28.95;52.42
75008;BME280;63554;48.940;12.050;2023-08-17T11:00:38;97474.09;;;29.25;51.47
75008;BME280;63554;48.940;12.050;2023-08-17T11:04:50;97459.28;;;29.67;49.85
75008;BME280;63554;48.940;12.050;2023-08-17T11:08:56;97464.06;;;29.66;49.66
75008;BME280;63554;48.940;12.050;2023-08-17T11:13:00;97465.69;;;29.67;50.08
75008;BME280;63554;48.940;12.050;2023-08-17T11:17:03;97463.03;;;29.71;50.22
75008;BME280;63554;48.940;12.050;2023-08-17T11:21:08;97468.13;;;29.90;49.12
75008;BME280;63554;48.940;12.050;2023-08-17T11:25:11;97460.97;;;30.13;47.96
75008;BME280;63554;48.940;12.050;2023-08-17T11:29:15;97458.06;;;30.22;47.55
75008;BME280;63554;48.940;12.050;2023-08-17T11:33:19;97449.75;;;30.34;48.67
75008;BME280;63554;48.940;12.050;2023-08-17T11:37:22;97453.25;;;30.31;48.65
75008;BME280;63554;48.940;12.050;2023-08-17T11:41:25;97450.94;;;30.58;47.83
75008;BME280;63554;48.940;12.050;2023-08-17T11:45:29;97454.88;;;30.57;46.55
75008;BME280;63554;48.940;12.050;2023-08-17T11:49:33;97437.19;;;31.02;46.59
75008;BME280;63554;48.940;12.050;2023-08-17T11:53:39;97442.19;;;31.09;44.47
75008;BME280;63554;48.940;12.050;2023-08-17T11:57:42;97440.03;;;31.30;46.20
75008;BME280;63554;48.940;12.050;2023-08-17T12:01:48;97433.34;;;31.47;43.58
75008;BME280;63554;48.940;12.050;2023-08-17T12:05:51;97429.59;;;31.56;46.67
75008;BME280;63554;48.940;12.050;2023-08-17T12:09:54;97427.66;;;31.72;44.53
75008;BME280;63554;48.940;12.050;2023-08-17T12:13:57;97423.34;;;31.75;44.72
75008;BME280;63554;48.940;12.050;2023-08-17T12:18:03;97425.00;;;31.91;44.80
75008;BME280;63554;48.940;12.050;2023-08-17T12:22:06;97419.72;;;31.74;43.95
75008;BME280;63554;48.940;12.050;2023-08-17T12:26:10;97408.19;;;31.76;44.75
75008;BME280;63554;48.940;12.050;2023-08-17T12:30:16;97404.16;;;32.05;40.46
75008;BME280;63554;48.940;12.050;2023-08-17T12:34:27;97391.47;;;31.95;41.23
75008;BME280;63554;48.940;12.050;2023-08-17T12:38:30;97391.34;;;32.20;42.78
75008;BME280;63554;48.940;12.050;2023-08-17T12:42:32;97380.84;;;32.48;40.90
75008;BME280;63554;48.940;12.050;2023-08-17T12:46:35;97375.91;;;32.10;42.79
75008;BME280;63554;48.940;12.050;2023-08-17T12:50:39;97360.63;;;32.39;40.40
75008;BME280;63554;48.940;12.050;2023-08-17T12:54:45;97361.78;;;32.70;39.78
75008;BME280;63554;48.940;12.050;2023-08-17T12:58:53;97358.25;;;32.93;38.95
75008;BME280;63554;48.940;12.050;2023-08-17T13:02:56;97357.94;;;33.14;39.10
75008;BME280;63554;48.940;12.050;2023-08-17T13:07:00;97362.66;;;33.29;39.88
75008;BME280;63554;48.940;12.050;2023-08-17T13:11:03;97350.75;;;33.36;39.60
75008;BME280;63554;48.940;12.050;2023-08-17T13:15:06;97347.56;;;33.57;40.65
75008;BME280;63554;48.940;12.050;2023-08-17T13:19:09;97351.84;;;32.92;37.68
75008;BME280;63554;48.940;12.050;2023-08-17T13:23:13;97342.56;;;33.07;38.46
75008;BME280;63554;48.940;12.050;2023-08-17T13:27:16;97349.25;;;33.19;38.24
75008;BME280;63554;48.940;12.050;2023-08-17T13:31:19;97338.50;;;33.44;39.16
75008;BME280;63554;48.940;12.050;2023-08-17T13:35:25;97342.19;;;33.09;38.69
75008;BME280;63554;48.940;12.050;2023-08-17T13:39:29;97336.13;;;33.46;35.46
75008;BME280;63554;48.940;12.050;2023-08-17T13:43:32;97331.59;;;33.61;36.06
75008;BME280;63554;48.940;12.050;2023-08-17T13:47:35;97328.13;;;33.67;36.94
75008;BME280;63554;48.940;12.050;2023-08-17T13:51:38;97341.09;;;33.95;36.24
75008;BME280;63554;48.940;12.050;2023-08-17T13:55:42;97323.53;;;34.02;36.02
75008;BME280;63554;48.940;12.050;2023-08-17T13:59:44;97327.91;;;34.22;35.62
75008;BME280;63554;48.940;12.050;2023-08-17T14:03:47;97321.22;;;33.84;37.33
75008;BME280;63554;48.940;12.050;2023-08-17T14:07:51;97325.16;;;33.80;37.07
75008;BME280;63554;48.940;12.050;2023-08-17T14:11:55;97317.50;;;33.57;35.99
75008;BME280;63554;48.940;12.050;2023-08-17T14:15:58;97318.69;;;33.76;37.58
75008;BME280;63554;48.940;12.050;2023-08-17T14:20:01;97316.06;;;33.86;36.68
75008;BME280;63554;48.940;12.050;2023-08-17T14:24:04;97309.25;;;33.64;37.79
75008;BME280;63554;48.940;12.050;2023-08-17T14:28:09;97305.34;;;33.30;39.61
75008;BME280;63554;48.940;12.050;2023-08-17T14:32:12;97293.91;;;33.00;38.78
75008;BME280;63554;48.940;12.050;2023-08-17T14:36:15;97290.34;;;33.19;38.33
75008;BME280;63554;48.940;12.050;2023-08-17T14:40:21;97276.28;;;32.80;37.20
75008;BME280;63554;48.940;12.050;2023-08-17T14:44:25;97275.84;;;32.97;38.47
75008;BME280;63554;48.940;12.050;2023-08-17T14:48:28;97270.38;;;32.85;38.31
75008;BME280;63554;48.940;12.050;2023-08-17T14:52:30;97263.34;;;32.75;37.35
75008;BME280;63554;48.940;12.050;2023-08-17T14:56:35;97254.22;;;32.59;36.99
75008;BME280;63554;48.940;12.050;2023-08-17T15:00:39;97250.91;;;32.73;37.42
75008;BME280;63554;48.940;12.050;2023-08-17T15:04:41;97240.00;;;32.51;36.36
75008;BME280;63554;48.940;12.050;2023-08-17T15:08:44;97231.53;;;31.97;36.94
75008;BME280;63554;48.940;12.050;2023-08-17T15:12:47;97225.94;;;31.97;37.27
75008;BME280;63554;48.940;12.050;2023-08-17T15:16:51;97220.19;;;32.05;38.36
75008;BME280;63554;48.940;12.050;2023-08-17T15:20:54;97215.91;;;32.11;37.93
75008;BME280;63554;48.940;12.050;2023-08-17T15:24:58;97210.66;;;32.45;36.79
75008;BME280;63554;48.940;12.050;2023-08-17T15:29:00;97208.59;;;32.42;40.11
75008;BME280;63554;48.940;12.050;2023-08-17T15:33:05;97217.72;;;32.39;36.68
75008;BME280;63554;48.940;12.050;2023-08-17T15:37:07;97222.41;;;32.00;36.81
75008;BME280;63554;48.940;12.050;2023-08-17T15:41:10;97223.91;;;31.78;38.35
75008;BME280;63554;48.940;12.050;2023-08-17T15:45:13;97235.78;;;31.90;38.00
75008;BME280;63554;48.940;12.050;2023-08-17T15:49:17;97242.41;;;32.34;38.33
75008;BME280;63554;48.940;12.050;2023-08-17T15:53:20;97252.38;;;32.31;37.90
75008;BME280;63554;48.940;12.050;2023-08-17T15:57:23;97258.25;;;32.26;38.04
75008;BME280;63554;48.940;12.050;2023-08-17T16:01:26;97262.31;;;32.28;36.50
75008;BME280;63554;48.940;12.050;2023-08-17T16:05:31;97260.38;;;31.97;38.29
75008;BME280;63554;48.940;12.050;2023-08-17T16:09:34;97258.03;;;32.15;41.13
75008;BME280;63554;48.940;12.050;2023-08-17T16:13:37;97255.94;;;31.64;40.24
75008;BME280;63554;48.940;12.050;2023-08-17T16:17:46;97263.84;;;30.74;41.19
75008;BME280;63554;48.940;12.050;2023-08-17T16:21:50;97275.78;;;29.85;42.93
75008;BME280;63554;48.940;12.050;2023-08-17T16:25:53;97278.06;;;29.58;44.32
75008;BME280;63554;48.940;12.050;2023-08-17T16:29:55;97278.44;;;29.69;44.96
75008;BME280;63554;48.940;12.050;2023-08-17T16:33:58;97279.91;;;29.54;45.56
75008;BME280;63554;48.940;12.050;2023-08-17T16:38:02;97288.91;;;29.26;46.45
75008;BME280;63554;48.940;12.050;2023-08-17T16:42:05;97282.53;;;29.05;47.92
75008;BME280;63554;48.940;12.050;2023-08-17T16:46:08;97276.41;;;28.78;48.34
75008;BME280;63554;48.940;12.050;2023-08-17T16:50:16;97274.22;;;28.63;48.30
75008;BME280;63554;48.940;12.050;2023-08-17T16:54:20;97273.06;;;28.64;48.35
75008;BME280;63554;48.940;12.050;2023-08-17T16:58:23;97268.34;;;28.64;48.80
75008;BME280;63554;48.940;12.050;2023-08-17T17:02:26;97277.91;;;28.54;49.40
75008;BME280;63554;48.940;12.050;2023-08-17T17:06:28;97289.53;;;28.48;49.47
75008;BME280;63554;48.940;12.050;2023-08-17T17:10:32;97290.72;;;28.47;49.81
75008;BME280;63554;48.940;12.050;2023-08-17T17:14:35;97288.78;;;27.88;51.12
75008;BME280;63554;48.940;12.050;2023-08-17T17:18:38;97304.59;;;27.49;52.16
75008;BME280;63554;48.940;12.050;2023-08-17T17:22:41;97316.00;;;27.56;51.79
75008;BME280;63554;48.940;12.050;2023-08-17T17:26:45;97323.53;;;27.55;50.39
75008;BME280;63554;48.940;12.050;2023-08-17T17:30:48;97325.88;;;27.45;51.16
75008;BME280;63554;48.940;12.050;2023-08-17T17:34:51;97322.13;;;27.40;51.13
75008;BME280;63554;48.940;12.050;2023-08-17T17:38:54;97326.53;;;27.33;51.81
75008;BME280;63554;48.940;12.050;2023-08-17T17:42:58;97320.66;;;27.26;53.05
75008;BME280;63554;48.940;12.050;2023-08-17T17:47:01;97328.00;;;27.13;52.94
75008;BME280;63554;48.940;12.050;2023-08-17T17:51:04;97336.34;;;27.04;52.33
75008;BME280;63554;48.940;12.050;2023-08-17T17:55:07;97349.91;;;26.97;54.25
75008;BME280;63554;48.940;12.050;2023-08-17T17:59:12;97383.31;;;26.48;57.89
75008;BME280;63554;48.940;12.050;2023-08-17T18:03:15;97388.09;;;25.85;52.22
75008;BME280;63554;48.940;12.050;2023-08-17T18:07:18;97400.13;;;25.49;52.46
75008;BME280;63554;48.940;12.050;2023-08-17T18:11:21;97399.22;;;25.17;50.89
75008;BME280;63554;48.940;12.050;2023-08-17T18:15:25;97411.66;;;24.70;50.85
75008;BME280;63554;48.940;12.050;2023-08-17T18:19:36;97423.16;;;24.35;51.87
75008;BME280;63554;48.940;12.050;2023-08-17T18:24:16;97439.22;;;24.05;53.03
75008;BME280;63554;48.940;12.050;2023-08-17T18:28:20;97439.88;;;23.83;54.09
75008;BME280;63554;48.940;12.050;2023-08-17T18:32:24;97461.06;;;23.55;56.38
75008;BME280;63554;48.940;12.050;2023-08-17T18:36:32;97493.25;;;23.46;57.60
75008;BME280;63554;48.940;12.050;2023-08-17T18:40:37;97498.25;;;23.44;58.14
75008;BME280;63554;48.940;12.050;2023-08-17T18:44:40;97505.44;;;23.26;59.59
75008;BME280;63554;48.940;12.050;2023-08-17T18:48:45;97505.53;;;23.21;59.94
75008;BME280;63554;48.940;12.050;2023-08-17T18:52:47;97551.03;;;23.04;60.46
75008;BME280;63554;48.940;12.050;2023-08-17T18:56:50;97572.75;;;22.87;61.51
75008;BME280;63554;48.940;12.050;2023-08-17T19:00:53;97579.56;;;22.70;61.92
75008;BME280;63554;48.940;12.050;2023-08-17T19:04:57;97559.47;;;22.65;61.97
75008;BME280;63554;48.940;12.050;2023-08-17T19:09:01;97607.69;;;22.73;61.03
75008;BME280;63554;48.940;12.050;2023-08-17T19:13:04;97621.22;;;22.69;61.28
75008;BME280;63554;48.940;12.050;2023-08-17T19:17:08;97626.06;;;22.58;62.13
75008;BME280;63554;48.940;12.050;2023-08-17T19:21:12;97633.31;;;22.49;61.98
75008;BME280;63554;48.940;12.050;2023-08-17T19:25:15;97625.56;;;22.51;61.49
75008;BME280;63554;48.940;12.050;2023-08-17T19:29:17;97623.34;;;22.53;62.32
75008;BME280;63554;48.940;12.050;2023-08-17T19:33:20;97617.41;;;22.36;64.15
75008;BME280;63554;48.940;12.050;2023-08-17T19:37:24;97618.41;;;22.16;66.31
75008;BME280;63554;48.940;12.050;2023-08-17T19:41:30;97643.56;;;22.04;66.21
75008;BME280;63554;48.940;12.050;2023-08-17T19:45:33;97647.69;;;21.62;68.54
75008;BME280;63554;48.940;12.050;2023-08-17T19:49:36;97646.75;;;21.27;70.16
75008;BME280;63554;48.940;12.050;2023-08-17T19:53:40;97634.97;;;21.11;71.25
75008;BME280;63554;48.940;12.050;2023-08-17T19:57:42;97625.97;;;20.90;71.79
75008;BME280;63554;48.940;12.050;2023-08-17T20:01:45;97606.16;;;20.88;72.18
75008;BME280;63554;48.940;12.050;2023-08-17T20:05:50;97597.09;;;20.82;71.03
75008;BME280;63554;48.940;12.050;2023-08-17T20:09:54;97614.47;;;20.72;71.75
75008;BME280;63554;48.940;12.050;2023-08-17T20:13:56;97616.41;;;20.67;72.32
75008;BME280;63554;48.940;12.050;2023-08-17T20:17:59;97631.53;;;20.64;72.80
75008;BME280;63554;48.940;12.050;2023-08-17T20:22:02;97649.69;;;20.65;73.29
75008;BME280;63554;48.940;12.050;2023-08-17T20:26:07;97662.59;;;20.54;74.81
75008;BME280;63554;48.940;12.050;2023-08-17T20:30:11;97662.88;;;20.43;75.95
75008;BME280;63554;48.940;12.050;2023-08-17T20:34:14;97664.78;;;20.42;75.92
75008;BME280;63554;48.940;12.050;2023-08-17T20:38:17;97649.41;;;20.26;77.05
75008;BME280;63554;48.940;12.050;2023-08-17T20:42:21;97650.78;;;20.13;78.41
75008;BME280;63554;48.940;12.050;2023-08-17T20:46:24;97641.44;;;20.09;78.78
75008;BME280;63554;48.940;12.050;2023-08-17T20:50:26;97626.06;;;20.08;79.59
75008;BME280;63554;48.940;12.050;2023-08-17T20:54:29;97620.00;;;20.01;79.97
75008;BME280;63554;48.940;12.050;2023-08-17T20:58:34;97613.41;;;19.97;80.36
75008;BME280;63554;48.940;12.050;2023-08-17T21:02:36;97603.25;;;19.92;80.88
75008;BME280;63554;48.940;12.050;2023-08-17T21:06:39;97599.13;;;19.84;80.91
75008;BME280;63554;48.940;12.050;2023-08-17T21:10:44;97589.97;;;19.58;81.67
75008;BME280;63554;48.940;12.050;2023-08-17T21:14:48;97586.97;;;19.54;82.85
75008;BME280;63554;48.940;12.050;2023-08-17T21:18:51;97588.91;;;19.59;81.99